sensor_id;sensor_type;location;lat;lon;timestamp;temperature;humidity
10437;DHT22;5265;50.006;9.202;2023-03-03T00:00:33;0.40;99.90
10437;DHT22;5265;50.006;9.202;2023-03-03T00:03:01;0.50;99.90
10437;DHT22;5265;50.006;9.202;2023-03-03T00:05:30;0.40;99.90
10437;DHT22;5265;50.006;9.202;2023-03-03T00:07:59;0.30;99.90
10437;DHT22;5265;50.006;9.202;2023-03-03T00:10:25;0.50;99.90
10437;DHT22;5265;50.006;9.202;2023-03-03T00:12:53;0.40;99.90
10437;DHT22;5265;50.006;9.202;2023-03-03T00:15:21;0.30;99.90
10437;DHT22;5265;50.006;9.202;2023-03-03T00:17:48;0.30;99.90
10437;DHT22;5265;50.006;9.202;2023-03-03T00:20:25;0.10;99.90
10437;DHT22;5265;50.006;9.202;2023-03-03T00:22:53;0.10;99.90
10437;DHT22;5265;50.006;9.202;2023-03-03T00:25:24;0.30;99.90
10437;DHT22;5265;50.006;9.202;2023-03-03T00:27:53;0.20;99.90
10437;DHT22;5265;50.006;9.202;2023-03-03T00:30:22;0.20;99.90
10437;DHT22;5265;50.006;9.202;2023-03-03T00:32:50;0.10;99.90
10437;DHT22;5265;50.006;9.202;2023-03-03T00:35:20;0.20;99.90
10437;DHT22;5265;50.006;9.202;2023-03-03T00:37:49;0.20;99.90
10437;DHT22;5265;50.006;9.202;2023-03-03T00:40:21;0.10;99.90
10437;DHT22;5265;50.006;9.202;2023-03-03T00:42:51;0.20;99.90
10437;DHT22;5265;50.006;9.202;2023-03-03T00:45:26;0.10;99.90
10437;DHT22;5265;50.006;9.202;2023-03-03T00:47:54;0.10;99.90
10437;DHT22;5265;50.006;9.202;2023-03-03T00:50:32;0.10;99.90
10437;DHT22;5265;50.006;9.202;2023-03-03T00:53:01;0.20;99.90
10437;DHT22;5265;50.006;9.202;2023-03-03T00:55:28;0.10;99.90
10437;DHT22;5265;50.006;9.202;2023-03-03T00:57:56;0.20;99.90
10437;DHT22;5265;50.006;9.202;2023-03-03T01:00:28;0.00;99.90
10437;DHT22;5265;50.006;9.202;2023-03-03T01:02:56;0.00;99.90
10437;DHT22;5265;50.006;9.202;2023-03-03T01:05:23;0.00;99.90
10437;DHT22;5265;50.006;9.202;2023-03-03T01:07:51;-0.20;99.90
10437;DHT22;5265;50.006;9.202;2023-03-03T01:10:18;-0.20;99.90
10437;DHT22;5265;50.006;9.202;2023-03-03T01:12:45;-0.20;99.90
10437;DHT22;5265;50.006;9.202;2023-03-03T01:15:14;-0.20;99.90
10437;DHT22;5265;50.006;9.202;2023-03-03T01:17:41;-0.10;99.90
10437;DHT22;5265;50.006;9.202;2023-03-03T01:20:09;-0.10;99.90
10437;DHT22;5265;50.006;9.202;2023-03-03T01:22:36;-0.10;99.90
10437;DHT22;5265;50.006;9.202;2023-03-03T01:25:04;-0.30;99.90
10437;DHT22;5265;50.006;9.202;2023-03-03T01:27:31;-0.30;99.90
10437;DHT22;5265;50.006;9.202;2023-03-03T01:29:58;-0.20;99.90
10437;DHT22;5265;50.006;9.202;2023-03-03T01:32:27;-0.10;99.90
10437;DHT22;5265;50.006;9.202;2023-03-03T01:34:54;-0.20;99.90
10437;DHT22;5265;50.006;9.202;2023-03-03T01:37:21;-0.30;99.90
10437;DHT22;5265;50.006;9.202;2023-03-03T01:39:49;-0.30;99.90
10437;DHT22;5265;50.006;9.202;2023-03-03T01:42:16;-0.20;99.90
10437;DHT22;5265;50.006;9.202;2023-03-03T01:44:43;-0.60;99.90
10437;DHT22;5265;50.006;9.202;2023-03-03T01:47:10;-0.30;99.90
10437;DHT22;5265;50.006;9.202;2023-03-03T01:49:40;-0.50;99.90
10437;DHT22;5265;50.006;9.202;2023-03-03T01:52:11;-0.70;99.90
10437;DHT22;5265;50.006;9.202;2023-03-03T01:54:39;-0.50;99.90
10437;DHT22;5265;50.006;9.202;2023-03-03T01:57:09;-0.70;99.90
10437;DHT22;5265;50.006;9.202;2023-03-03T01:59:39;-0.70;99.90
10437;DHT22;5265;50.006;9.202;2023-03-03T02:02:07;-0.60;99.90
10437;DHT22;5265;50.006;9.202;2023-03-03T02:04:35;-0.60;99.90
10437;DHT22;5265;50.006;9.202;2023-03-03T02:07:04;-0.60;99.90
10437;DHT22;5265;50.006;9.202;2023-03-03T02:09:36;-0.70;99.90
10437;DHT22;5265;50.006;9.202;2023-03-03T02:12:06;-0.60;99.90
10437;DHT22;5265;50.006;9.202;2023-03-03T02:14:33;-0.70;99.90
10437;DHT22;5265;50.006;9.202;2023-03-03T02:17:01;-0.70;99.90
10437;DHT22;5265;50.006;9.202;2023-03-03T02:19:31;-0.60;99.90
10437;DHT22;5265;50.006;9.202;2023-03-03T02:22:00;-0.80;99.90
10437;DHT22;5265;50.006;9.202;2023-03-03T02:24:31;-0.80;99.90
10437;DHT22;5265;50.006;9.202;2023-03-03T02:27:00;-0.80;99.90
10437;DHT22;5265;50.006;9.202;2023-03-03T02:29:28;-0.80;99.90
10437;DHT22;5265;50.006;9.202;2023-03-03T02:31:56;-0.60;99.90
10437;DHT22;5265;50.006;9.202;2023-03-03T02:34:23;-0.90;99.90
10437;DHT22;5265;50.006;9.202;2023-03-03T02:36:50;-1.00;99.90
10437;DHT22;5265;50.006;9.202;2023-03-03T02:39:19;-0.90;99.90
10437;DHT22;5265;50.006;9.202;2023-03-03T02:41:48;-0.70;99.90
10437;DHT22;5265;50.006;9.202;2023-03-03T02:44:20;-0.90;99.90
10437;DHT22;5265;50.006;9.202;2023-03-03T02:46:48;-1.00;99.90
10437;DHT22;5265;50.006;9.202;2023-03-03T02:49:17;-1.00;99.90
10437;DHT22;5265;50.006;9.202;2023-03-03T02:51:44;-0.80;99.90
10437;DHT22;5265;50.006;9.202;2023-03-03T02:54:12;-1.10;99.90
10437;DHT22;5265;50.006;9.202;2023-03-03T02:56:40;-1.10;99.90
10437;DHT22;5265;50.006;9.202;2023-03-03T02:59:07;-1.10;99.90
10437;DHT22;5265;50.006;9.202;2023-03-03T03:01:41;-0.90;99.90
10437;DHT22;5265;50.006;9.202;2023-03-03T03:04:12;-1.10;99.90
10437;DHT22;5265;50.006;9.202;2023-03-03T03:06:42;-1.20;99.90
10437;DHT22;5265;50.006;9.202;2023-03-03T03:09:11;-1.10;99.90
10437;DHT22;5265;50.006;9.202;2023-03-03T03:11:38;-1.40;99.90
10437;DHT22;5265;50.006;9.202;2023-03-03T03:14:07;-1.10;99.90
10437;DHT22;5265;50.006;9.202;2023-03-03T03:16:34;-1.20;99.90
10437;DHT22;5265;50.006;9.202;2023-03-03T03:19:03;-1.20;99.90
10437;DHT22;5265;50.006;9.202;2023-03-03T03:21:31;-1.20;99.90
10437;DHT22;5265;50.006;9.202;2023-03-03T03:23:58;-1.40;99.90
10437;DHT22;5265;50.006;9.202;2023-03-03T03:26:26;-1.30;99.90
10437;DHT22;5265;50.006;9.202;2023-03-03T03:28:54;-1.20;99.90
10437;DHT22;5265;50.006;9.202;2023-03-03T03:31:21;-1.00;99.90
10437;DHT22;5265;50.006;9.202;2023-03-03T03:33:48;-1.40;99.90
10437;DHT22;5265;50.006;9.202;2023-03-03T03:36:18;-1.40;99.90
10437;DHT22;5265;50.006;9.202;2023-03-03T03:38:45;-1.40;99.90
10437;DHT22;5265;50.006;9.202;2023-03-03T03:41:13;-1.20;99.90
10437;DHT22;5265;50.006;9.202;2023-03-03T03:43:39;-1.20;99.90
10437;DHT22;5265;50.006;9.202;2023-03-03T03:46:07;-1.40;99.90
10437;DHT22;5265;50.006;9.202;2023-03-03T03:48:34;-1.50;99.90
10437;DHT22;5265;50.006;9.202;2023-03-03T03:51:03;-1.50;99.90
10437;DHT22;5265;50.006;9.202;2023-03-03T03:53:33;-1.70;99.90
10437;DHT22;5265;50.006;9.202;2023-03-03T03:55:59;-1.60;99.90
10437;DHT22;5265;50.006;9.202;2023-03-03T03:58:28;-1.50;99.90
10437;DHT22;5265;50.006;9.202;2023-03-03T04:01:01;-1.80;99.90
10437;DHT22;5265;50.006;9.202;2023-03-03T04:03:28;-1.90;99.90
10437;DHT22;5265;50.006;9.202;2023-03-03T04:05:56;-1.90;99.90
10437;DHT22;5265;50.006;9.202;2023-03-03T04:08:23;-1.70;99.90
10437;DHT22;5265;50.006;9.202;2023-03-03T04:10:51;-1.90;99.90
10437;DHT22;5265;50.006;9.202;2023-03-03T04:13:19;-1.80;99.90
10437;DHT22;5265;50.006;9.202;2023-03-03T04:15:46;-1.80;99.90
10437;DHT22;5265;50.006;9.202;2023-03-03T04:18:14;-1.90;99.90
10437;DHT22;5265;50.006;9.202;2023-03-03T04:20:42;-1.80;99.90
10437;DHT22;5265;50.006;9.202;2023-03-03T04:23:09;-1.80;99.90
10437;DHT22;5265;50.006;9.202;2023-03-03T04:25:37;-1.90;99.90
10437;DHT22;5265;50.006;9.202;2023-03-03T04:28:12;-1.90;99.90
10437;DHT22;5265;50.006;9.202;2023-03-03T04:30:39;-1.90;99.90
10437;DHT22;5265;50.006;9.202;2023-03-03T04:33:07;-1.80;99.90
10437;DHT22;5265;50.006;9.202;2023-03-03T04:35:37;-1.60;99.90
10437;DHT22;5265;50.006;9.202;2023-03-03T04:38:04;-1.60;99.90
10437;DHT22;5265;50.006;9.202;2023-03-03T04:40:32;-1.70;99.90
10437;DHT22;5265;50.006;9.202;2023-03-03T04:43:01;-1.80;99.90
10437;DHT22;5265;50.006;9.202;2023-03-03T04:45:30;-1.90;99.90
10437;DHT22;5265;50.006;9.202;2023-03-03T04:47:57;-1.90;99.90
10437;DHT22;5265;50.006;9.202;2023-03-03T04:50:24;-1.80;99.90
10437;DHT22;5265;50.006;9.202;2023-03-03T04:52:52;-1.90;99.90
10437;DHT22;5265;50.006;9.202;2023-03-03T04:55:20;-1.90;99.90
10437;DHT22;5265;50.006;9.202;2023-03-03T04:57:47;-1.90;99.90
10437;DHT22;5265;50.006;9.202;2023-03-03T05:00:15;-1.90;99.90
10437;DHT22;5265;50.006;9.202;2023-03-03T05:02:43;-1.90;99.90
10437;DHT22;5265;50.006;9.202;2023-03-03T05:05:13;-1.80;99.90
10437;DHT22;5265;50.006;9.202;2023-03-03T05:07:40;-2.00;99.90
10437;DHT22;5265;50.006;9.202;2023-03-03T05:10:07;-1.80;99.90
10437;DHT22;5265;50.006;9.202;2023-03-03T05:12:34;-2.00;99.90
10437;DHT22;5265;50.006;9.202;2023-03-03T05:15:01;-2.00;99.90
10437;DHT22;5265;50.006;9.202;2023-03-03T05:17:28;-1.90;99.90
10437;DHT22;5265;50.006;9.202;2023-03-03T05:19:57;-2.00;99.90
10437;DHT22;5265;50.006;9.202;2023-03-03T05:22:24;-1.90;99.90
10437;DHT22;5265;50.006;9.202;2023-03-03T05:24:51;-2.20;99.90
10437;DHT22;5265;50.006;9.202;2023-03-03T05:27:18;-2.30;99.90
10437;DHT22;5265;50.006;9.202;2023-03-03T05:29:45;-2.10;99.90
10437;DHT22;5265;50.006;9.202;2023-03-03T05:32:13;-2.30;99.90
10437;DHT22;5265;50.006;9.202;2023-03-03T05:34:40;-2.30;99.90
10437;DHT22;5265;50.006;9.202;2023-03-03T05:37:08;-2.40;99.90
10437;DHT22;5265;50.006;9.202;2023-03-03T05:39:36;-2.30;99.90
10437;DHT22;5265;50.006;9.202;2023-03-03T05:42:03;-2.40;99.90
10437;DHT22;5265;50.006;9.202;2023-03-03T05:44:30;-2.60;99.90
10437;DHT22;5265;50.006;9.202;2023-03-03T05:46:57;-2.50;99.90
10437;DHT22;5265;50.006;9.202;2023-03-03T05:49:25;-2.50;99.90
10437;DHT22;5265;50.006;9.202;2023-03-03T05:51:51;-2.50;99.90
10437;DHT22;5265;50.006;9.202;2023-03-03T05:54:20;-2.40;99.90
10437;DHT22;5265;50.006;9.202;2023-03-03T05:56:47;-2.60;99.90
10437;DHT22;5265;50.006;9.202;2023-03-03T05:59:14;-2.50;99.90
10437;DHT22;5265;50.006;9.202;2023-03-03T06:01:41;-2.50;99.90
10437;DHT22;5265;50.006;9.202;2023-03-03T06:04:08;-2.60;99.90
10437;DHT22;5265;50.006;9.202;2023-03-03T06:06:36;-2.50;99.90
10437;DHT22;5265;50.006;9.202;2023-03-03T06:09:03;-2.60;99.90
10437;DHT22;5265;50.006;9.202;2023-03-03T06:11:32;-2.50;99.90
10437;DHT22;5265;50.006;9.202;2023-03-03T06:13:59;-2.70;99.90
10437;DHT22;5265;50.006;9.202;2023-03-03T06:16:26;-2.50;99.90
10437;DHT22;5265;50.006;9.202;2023-03-03T06:18:53;-2.40;99.90
10437;DHT22;5265;50.006;9.202;2023-03-03T06:21:20;-2.70;99.90
10437;DHT22;5265;50.006;9.202;2023-03-03T06:23:47;-2.70;99.90
10437;DHT22;5265;50.006;9.202;2023-03-03T06:26:14;-2.70;99.90
10437;DHT22;5265;50.006;9.202;2023-03-03T06:28:43;-2.80;99.90
10437;DHT22;5265;50.006;9.202;2023-03-03T06:31:10;-2.70;99.90
10437;DHT22;5265;50.006;9.202;2023-03-03T06:33:37;-2.50;99.90
10437;DHT22;5265;50.006;9.202;2023-03-03T06:36:05;-2.70;99.90
10437;DHT22;5265;50.006;9.202;2023-03-03T06:38:32;-2.60;99.90
10437;DHT22;5265;50.006;9.202;2023-03-03T06:40:59;-2.50;99.90
10437;DHT22;5265;50.006;9.202;2023-03-03T06:43:31;-2.60;99.90
10437;DHT22;5265;50.006;9.202;2023-03-03T06:45:59;-2.30;99.90
10437;DHT22;5265;50.006;9.202;2023-03-03T06:48:27;-2.50;99.90
10437;DHT22;5265;50.006;9.202;2023-03-03T06:50:54;-2.20;99.90
10437;DHT22;5265;50.006;9.202;2023-03-03T06:53:21;-2.40;99.90
10437;DHT22;5265;50.006;9.202;2023-03-03T06:55:48;-2.40;99.90
10437;DHT22;5265;50.006;9.202;2023-03-03T06:58:16;-1.80;99.90
10437;DHT22;5265;50.006;9.202;2023-03-03T07:00:44;-2.30;99.90
10437;DHT22;5265;50.006;9.202;2023-03-03T07:03:13;-2.30;99.90
10437;DHT22;5265;50.006;9.202;2023-03-03T07:05:41;-2.20;99.90
10437;DHT22;5265;50.006;9.202;2023-03-03T07:08:10;-2.30;99.90
10437;DHT22;5265;50.006;9.202;2023-03-03T07:10:39;-2.20;99.90
10437;DHT22;5265;50.006;9.202;2023-03-03T07:13:13;-2.30;99.90
10437;DHT22;5265;50.006;9.202;2023-03-03T07:15:42;-2.00;99.90
10437;DHT22;5265;50.006;9.202;2023-03-03T07:18:18;-1.80;99.90
10437;DHT22;5265;50.006;9.202;2023-03-03T07:20:48;-1.60;99.90
10437;DHT22;5265;50.006;9.202;2023-03-03T07:23:18;-1.80;99.90
10437;DHT22;5265;50.006;9.202;2023-03-03T07:25:47;-1.60;99.90
10437;DHT22;5265;50.006;9.202;2023-03-03T07:28:16;-1.50;99.90
10437;DHT22;5265;50.006;9.202;2023-03-03T07:30:46;-1.50;99.90
10437;DHT22;5265;50.006;9.202;2023-03-03T07:33:17;-1.50;99.90
10437;DHT22;5265;50.006;9.202;2023-03-03T07:35:45;-1.50;99.90
10437;DHT22;5265;50.006;9.202;2023-03-03T07:38:18;-1.50;99.90
10437;DHT22;5265;50.006;9.202;2023-03-03T07:40:49;-1.30;99.90
10437;DHT22;5265;50.006;9.202;2023-03-03T07:46:13;-1.40;99.90
10437;DHT22;5265;50.006;9.202;2023-03-03T07:48:42;-1.30;99.90
10437;DHT22;5265;50.006;9.202;2023-03-03T07:51:11;-1.10;99.90
10437;DHT22;5265;50.006;9.202;2023-03-03T07:53:41;-0.90;99.90
10437;DHT22;5265;50.006;9.202;2023-03-03T07:56:14;-0.70;99.90
10437;DHT22;5265;50.006;9.202;2023-03-03T07:58:41;-0.60;99.90
10437;DHT22;5265;50.006;9.202;2023-03-03T08:03:51;-0.40;99.90
10437;DHT22;5265;50.006;9.202;2023-03-03T08:09:12;-0.20;99.90
10437;DHT22;5265;50.006;9.202;2023-03-03T08:11:52;0.00;99.90
10437;DHT22;5265;50.006;9.202;2023-03-03T08:14:20;0.00;99.90
10437;DHT22;5265;50.006;9.202;2023-03-03T08:16:50;0.20;99.90
10437;DHT22;5265;50.006;9.202;2023-03-03T08:19:17;0.10;99.90
10437;DHT22;5265;50.006;9.202;2023-03-03T08:21:44;0.30;99.90
10437;DHT22;5265;50.006;9.202;2023-03-03T08:24:13;0.40;99.90
10437;DHT22;5265;50.006;9.202;2023-03-03T08:26:41;0.50;99.90
10437;DHT22;5265;50.006;9.202;2023-03-03T08:29:08;0.60;99.90
10437;DHT22;5265;50.006;9.202;2023-03-03T08:31:36;0.50;99.90
10437;DHT22;5265;50.006;9.202;2023-03-03T08:34:03;1.20;99.90
10437;DHT22;5265;50.006;9.202;2023-03-03T08:36:30;1.20;99.90
10437;DHT22;5265;50.006;9.202;2023-03-03T08:38:57;1.50;99.90
10437;DHT22;5265;50.006;9.202;2023-03-03T08:41:25;1.60;99.90
10437;DHT22;5265;50.006;9.202;2023-03-03T08:43:52;1.70;99.90
10437;DHT22;5265;50.006;9.202;2023-03-03T08:46:19;1.60;99.90
10437;DHT22;5265;50.006;9.202;2023-03-03T08:48:47;2.00;99.90
10437;DHT22;5265;50.006;9.202;2023-03-03T08:51:14;2.20;99.90
10437;DHT22;5265;50.006;9.202;2023-03-03T08:53:41;2.30;99.90
10437;DHT22;5265;50.006;9.202;2023-03-03T08:56:08;2.20;99.90
10437;DHT22;5265;50.006;9.202;2023-03-03T08:58:37;2.50;99.90
10437;DHT22;5265;50.006;9.202;2023-03-03T09:01:06;2.50;99.90
10437;DHT22;5265;50.006;9.202;2023-03-03T09:03:33;2.60;99.90
10437;DHT22;5265;50.006;9.202;2023-03-03T09:06:00;2.40;99.90
10437;DHT22;5265;50.006;9.202;2023-03-03T09:08:27;2.60;99.90
10437;DHT22;5265;50.006;9.202;2023-03-03T09:10:54;2.80;99.90
10437;DHT22;5265;50.006;9.202;2023-03-03T09:13:22;2.40;99.90
10437;DHT22;5265;50.006;9.202;2023-03-03T09:15:50;2.70;99.90
10437;DHT22;5265;50.006;9.202;2023-03-03T09:18:17;3.00;99.90
10437;DHT22;5265;50.006;9.202;2023-03-03T09:20:45;2.90;99.90
10437;DHT22;5265;50.006;9.202;2023-03-03T09:23:29;2.90;99.90
10437;DHT22;5265;50.006;9.202;2023-03-03T09:25:58;3.20;99.90
10437;DHT22;5265;50.006;9.202;2023-03-03T09:28:37;3.10;99.90
10437;DHT22;5265;50.006;9.202;2023-03-03T09:31:15;3.30;99.90
10437;DHT22;5265;50.006;9.202;2023-03-03T09:33:43;3.30;99.90
10437;DHT22;5265;50.006;9.202;2023-03-03T09:36:16;3.40;99.90
10437;DHT22;5265;50.006;9.202;2023-03-03T09:38:45;3.50;99.90
10437;DHT22;5265;50.006;9.202;2023-03-03T09:41:15;3.50;99.90
10437;DHT22;5265;50.006;9.202;2023-03-03T09:44:00;3.50;99.90
10437;DHT22;5265;50.006;9.202;2023-03-03T09:46:33;3.60;99.90
10437;DHT22;5265;50.006;9.202;2023-03-03T09:49:09;3.90;99.90
10437;DHT22;5265;50.006;9.202;2023-03-03T09:51:48;3.60;99.90
10437;DHT22;5265;50.006;9.202;2023-03-03T09:54:21;3.70;99.90
10437;DHT22;5265;50.006;9.202;2023-03-03T09:56:53;3.80;99.90
10437;DHT22;5265;50.006;9.202;2023-03-03T09:59:29;4.10;99.90
10437;DHT22;5265;50.006;9.202;2023-03-03T10:02:09;4.30;99.90
10437;DHT22;5265;50.006;9.202;2023-03-03T10:04:47;4.20;99.90
10437;DHT22;5265;50.006;9.202;2023-03-03T10:07:22;4.20;99.90
10437;DHT22;5265;50.006;9.202;2023-03-03T10:10:02;4.70;99.90
10437;DHT22;5265;50.006;9.202;2023-03-03T10:12:32;4.60;99.90
10437;DHT22;5265;50.006;9.202;2023-03-03T10:15:03;4.70;99.90
10437;DHT22;5265;50.006;9.202;2023-03-03T10:17:43;5.10;99.90
10437;DHT22;5265;50.006;9.202;2023-03-03T10:20:26;5.00;99.90
10437;DHT22;5265;50.006;9.202;2023-03-03T10:22:58;5.00;99.90
10437;DHT22;5265;50.006;9.202;2023-03-03T10:25:33;5.10;99.90
10437;DHT22;5265;50.006;9.202;2023-03-03T10:28:05;5.30;99.90
10437;DHT22;5265;50.006;9.202;2023-03-03T10:30:37;5.30;99.90
10437;DHT22;5265;50.006;9.202;2023-03-03T10:33:09;5.30;99.90
10437;DHT22;5265;50.006;9.202;2023-03-03T10:35:50;5.60;99.90
10437;DHT22;5265;50.006;9.202;2023-03-03T10:38:35;5.40;99.90
10437;DHT22;5265;50.006;9.202;2023-03-03T10:41:09;5.50;99.90
10437;DHT22;5265;50.006;9.202;2023-03-03T10:43:47;5.80;99.90
10437;DHT22;5265;50.006;9.202;2023-03-03T10:46:20;5.90;99.90
10437;DHT22;5265;50.006;9.202;2023-03-03T10:51:41;5.80;99.90
10437;DHT22;5265;50.006;9.202;2023-03-03T10:54:21;6.40;99.90
10437;DHT22;5265;50.006;9.202;2023-03-03T10:56:56;5.90;99.90
10437;DHT22;5265;50.006;9.202;2023-03-03T10:59:31;6.20;99.90
10437;DHT22;5265;50.006;9.202;2023-03-03T11:02:02;5.90;99.90
10437;DHT22;5265;50.006;9.202;2023-03-03T11:04:41;6.10;99.90
10437;DHT22;5265;50.006;9.202;2023-03-03T11:07:12;6.30;99.90
10437;DHT22;5265;50.006;9.202;2023-03-03T11:09:46;6.10;99.90
10437;DHT22;5265;50.006;9.202;2023-03-03T11:12:19;6.70;99.90
10437;DHT22;5265;50.006;9.202;2023-03-03T11:14:52;6.60;99.90
10437;DHT22;5265;50.006;9.202;2023-03-03T11:17:23;6.20;99.90
10437;DHT22;5265;50.006;9.202;2023-03-03T11:19:57;6.40;99.90
10437;DHT22;5265;50.006;9.202;2023-03-03T11:22:33;6.40;99.90
10437;DHT22;5265;50.006;9.202;2023-03-03T11:25:02;6.70;99.90
10437;DHT22;5265;50.006;9.202;2023-03-03T11:27:36;6.70;99.90
10437;DHT22;5265;50.006;9.202;2023-03-03T11:30:11;6.50;99.90
10437;DHT22;5265;50.006;9.202;2023-03-03T11:32:44;6.70;99.90
10437;DHT22;5265;50.006;9.202;2023-03-03T11:35:15;6.80;99.90
10437;DHT22;5265;50.006;9.202;2023-03-03T11:37:47;6.80;99.90
10437;DHT22;5265;50.006;9.202;2023-03-03T11:40:19;6.80;99.90
10437;DHT22;5265;50.006;9.202;2023-03-03T11:42:53;6.90;99.90
10437;DHT22;5265;50.006;9.202;2023-03-03T11:45:26;7.00;99.90
10437;DHT22;5265;50.006;9.202;2023-03-03T11:47:57;7.10;99.90
10437;DHT22;5265;50.006;9.202;2023-03-03T11:50:26;7.20;99.90
10437;DHT22;5265;50.006;9.202;2023-03-03T11:52:59;7.30;99.90
10437;DHT22;5265;50.006;9.202;2023-03-03T11:55:32;7.30;99.90
10437;DHT22;5265;50.006;9.202;2023-03-03T11:58:06;7.30;99.90
10437;DHT22;5265;50.006;9.202;2023-03-03T12:00:36;7.40;99.90
10437;DHT22;5265;50.006;9.202;2023-03-03T12:03:14;7.60;99.90
10437;DHT22;5265;50.006;9.202;2023-03-03T12:08:31;7.60;99.90
10437;DHT22;5265;50.006;9.202;2023-03-03T12:11:02;7.60;99.90
10437;DHT22;5265;50.006;9.202;2023-03-03T12:13:34;7.70;99.90
10437;DHT22;5265;50.006;9.202;2023-03-03T12:16:08;7.90;99.90
10437;DHT22;5265;50.006;9.202;2023-03-03T12:18:52;7.80;99.90
10437;DHT22;5265;50.006;9.202;2023-03-03T12:21:29;7.80;99.90
10437;DHT22;5265;50.006;9.202;2023-03-03T12:24:10;7.90;99.90
10437;DHT22;5265;50.006;9.202;2023-03-03T12:26:43;8.00;99.90
10437;DHT22;5265;50.006;9.202;2023-03-03T12:29:23;7.90;99.90
10437;DHT22;5265;50.006;9.202;2023-03-03T12:31:52;8.10;99.90
10437;DHT22;5265;50.006;9.202;2023-03-03T12:34:22;8.20;99.90
10437;DHT22;5265;50.006;9.202;2023-03-03T12:39:41;8.20;99.90
10437;DHT22;5265;50.006;9.202;2023-03-03T12:42:11;8.50;99.90
10437;DHT22;5265;50.006;9.202;2023-03-03T12:44:43;8.70;99.90
10437;DHT22;5265;50.006;9.202;2023-03-03T12:47:14;8.70;99.90
10437;DHT22;5265;50.006;9.202;2023-03-03T12:49:45;8.70;99.90
10437;DHT22;5265;50.006;9.202;2023-03-03T12:52:20;8.80;99.90
10437;DHT22;5265;50.006;9.202;2023-03-03T12:55:04;8.70;99.90
10437;DHT22;5265;50.006;9.202;2023-03-03T12:57:39;8.90;99.90
10437;DHT22;5265;50.006;9.202;2023-03-03T13:00:15;9.10;99.90
10437;DHT22;5265;50.006;9.202;2023-03-03T13:02:46;9.20;99.90
10437;DHT22;5265;50.006;9.202;2023-03-03T13:05:20;9.10;99.90
10437;DHT22;5265;50.006;9.202;2023-03-03T13:07:54;9.40;99.90
10437;DHT22;5265;50.006;9.202;2023-03-03T13:10:25;9.80;99.90
10437;DHT22;5265;50.006;9.202;2023-03-03T13:12:54;10.30;99.90
10437;DHT22;5265;50.006;9.202;2023-03-03T13:15:23;10.50;99.90
10437;DHT22;5265;50.006;9.202;2023-03-03T13:17:54;10.50;99.90
10437;DHT22;5265;50.006;9.202;2023-03-03T13:20:24;10.50;99.90
10437;DHT22;5265;50.006;9.202;2023-03-03T13:22:58;10.60;99.90
10437;DHT22;5265;50.006;9.202;2023-03-03T13:25:35;10.70;99.90
10437;DHT22;5265;50.006;9.202;2023-03-03T13:28:05;10.80;99.90
10437;DHT22;5265;50.006;9.202;2023-03-03T13:30:36;10.90;99.90
10437;DHT22;5265;50.006;9.202;2023-03-03T13:33:07;10.80;99.90
10437;DHT22;5265;50.006;9.202;2023-03-03T13:35:39;10.90;99.90
10437;DHT22;5265;50.006;9.202;2023-03-03T13:38:08;10.80;99.90
10437;DHT22;5265;50.006;9.202;2023-03-03T13:40:40;10.90;99.90
10437;DHT22;5265;50.006;9.202;2023-03-03T13:43:10;10.90;99.90
10437;DHT22;5265;50.006;9.202;2023-03-03T13:45:41;10.80;99.90
10437;DHT22;5265;50.006;9.202;2023-03-03T13:48:14;10.90;99.90
10437;DHT22;5265;50.006;9.202;2023-03-03T13:50:50;11.20;99.90
10437;DHT22;5265;50.006;9.202;2023-03-03T13:53:29;11.20;99.90
10437;DHT22;5265;50.006;9.202;2023-03-03T13:56:03;11.20;99.90
10437;DHT22;5265;50.006;9.202;2023-03-03T13:58:35;11.30;99.90
10437;DHT22;5265;50.006;9.202;2023-03-03T14:01:07;11.50;99.90
10437;DHT22;5265;50.006;9.202;2023-03-03T14:03:42;11.90;99.80
10437;DHT22;5265;50.006;9.202;2023-03-03T14:06:13;11.40;99.60
10437;DHT22;5265;50.006;9.202;2023-03-03T14:08:43;11.20;99.60
10437;DHT22;5265;50.006;9.202;2023-03-03T14:11:16;11.30;99.90
10437;DHT22;5265;50.006;9.202;2023-03-03T14:13:48;11.20;99.10
10437;DHT22;5265;50.006;9.202;2023-03-03T14:16:19;11.10;98.30
10437;DHT22;5265;50.006;9.202;2023-03-03T14:18:51;10.60;98.90
10437;DHT22;5265;50.006;9.202;2023-03-03T14:21:20;10.60;99.50
10437;DHT22;5265;50.006;9.202;2023-03-03T14:23:52;11.20;99.70
10437;DHT22;5265;50.006;9.202;2023-03-03T14:26:23;11.60;98.30
10437;DHT22;5265;50.006;9.202;2023-03-03T14:31:24;11.30;99.00
10437;DHT22;5265;50.006;9.202;2023-03-03T14:34:01;11.10;98.40
10437;DHT22;5265;50.006;9.202;2023-03-03T14:36:30;10.70;98.20
10437;DHT22;5265;50.006;9.202;2023-03-03T14:38:57;11.10;98.20
10437;DHT22;5265;50.006;9.202;2023-03-03T14:41:37;11.20;96.90
10437;DHT22;5265;50.006;9.202;2023-03-03T14:44:20;11.00;97.30
10437;DHT22;5265;50.006;9.202;2023-03-03T14:46:59;11.20;96.20
10437;DHT22;5265;50.006;9.202;2023-03-03T14:49:30;11.40;96.30
10437;DHT22;5265;50.006;9.202;2023-03-03T14:52:00;11.30;96.80
10437;DHT22;5265;50.006;9.202;2023-03-03T14:54:28;11.30;96.00
10437;DHT22;5265;50.006;9.202;2023-03-03T14:57:02;11.30;95.80
10437;DHT22;5265;50.006;9.202;2023-03-03T14:59:31;10.80;95.50
10437;DHT22;5265;50.006;9.202;2023-03-03T15:02:07;10.80;96.10
10437;DHT22;5265;50.006;9.202;2023-03-03T15:04:39;11.00;96.20
10437;DHT22;5265;50.006;9.202;2023-03-03T15:07:14;10.90;96.30
10437;DHT22;5265;50.006;9.202;2023-03-03T15:09:47;11.10;96.20
10437;DHT22;5265;50.006;9.202;2023-03-03T15:12:20;11.10;96.40
10437;DHT22;5265;50.006;9.202;2023-03-03T15:14:48;11.40;95.80
10437;DHT22;5265;50.006;9.202;2023-03-03T15:17:18;11.30;95.80
10437;DHT22;5265;50.006;9.202;2023-03-03T15:19:50;11.30;96.30
10437;DHT22;5265;50.006;9.202;2023-03-03T15:22:24;11.20;96.10
10437;DHT22;5265;50.006;9.202;2023-03-03T15:24:59;10.90;96.90
10437;DHT22;5265;50.006;9.202;2023-03-03T15:27:31;10.90;97.40
10437;DHT22;5265;50.006;9.202;2023-03-03T15:30:03;11.00;98.90
10437;DHT22;5265;50.006;9.202;2023-03-03T15:32:35;11.10;99.40
10437;DHT22;5265;50.006;9.202;2023-03-03T15:35:11;10.80;99.70
10437;DHT22;5265;50.006;9.202;2023-03-03T15:37:41;10.80;99.80
10437;DHT22;5265;50.006;9.202;2023-03-03T15:40:15;10.90;99.90
10437;DHT22;5265;50.006;9.202;2023-03-03T15:42:46;11.30;99.90
10437;DHT22;5265;50.006;9.202;2023-03-03T15:45:16;11.50;99.90
10437;DHT22;5265;50.006;9.202;2023-03-03T15:50:42;11.40;99.80
10437;DHT22;5265;50.006;9.202;2023-03-03T15:53:17;11.20;99.70
10437;DHT22;5265;50.006;9.202;2023-03-03T15:55:48;10.90;99.90
10437;DHT22;5265;50.006;9.202;2023-03-03T15:58:29;10.80;99.90
10437;DHT22;5265;50.006;9.202;2023-03-03T16:01:01;10.70;99.90
10437;DHT22;5265;50.006;9.202;2023-03-03T16:03:35;10.90;99.90
10437;DHT22;5265;50.006;9.202;2023-03-03T16:06:04;10.50;99.90
10437;DHT22;5265;50.006;9.202;2023-03-03T16:08:37;10.20;99.90
10437;DHT22;5265;50.006;9.202;2023-03-03T16:11:09;10.40;99.90
10437;DHT22;5265;50.006;9.202;2023-03-03T16:13:43;10.50;99.90
10437;DHT22;5265;50.006;9.202;2023-03-03T16:16:16;10.60;99.90
10437;DHT22;5265;50.006;9.202;2023-03-03T16:18:50;10.50;99.90
10437;DHT22;5265;50.006;9.202;2023-03-03T16:21:21;10.60;99.90
10437;DHT22;5265;50.006;9.202;2023-03-03T16:23:49;10.70;99.90
10437;DHT22;5265;50.006;9.202;2023-03-03T16:26:26;10.60;99.90
10437;DHT22;5265;50.006;9.202;2023-03-03T16:29:21;10.50;99.90
10437;DHT22;5265;50.006;9.202;2023-03-03T16:31:52;10.50;99.90
10437;DHT22;5265;50.006;9.202;2023-03-03T16:34:21;10.40;99.90